Martine P — 2FIL4 — position and weather

sailwx.info

Track history (hours):
 
Tides and Currents Weather Stations Pressure Air Temp Water Temp Dewpoint Dewpoint Depression Visibility Wind Speed Wind Dir Waves Ship Positions

Martine P

Last reported at 2017-Dec-11 11:14 UTC. Time now 2017-Dec-11 13:23 UTC.
Position N 55°29' E 006°43'.

Length 27 m; draft 3 m.

Type: Tug. MMSI: 235091541.

Date/timePositionNaut miles runAvg speedWind from/ knotsBaromVisibWave heightAir tempDewpointWater temp
2017-Dec-11 11:14N 55°29' E 006°43'2 8.2
2017-Dec-11 11:00N 55°27' E 006°41'4 8.4
2017-Dec-11 10:30N 55°23' E 006°37'4 8.3
2017-Dec-11 09:59N 55°20' E 006°32'4 8.4
2017-Dec-11 09:30N 55°17' E 006°28'157 8.0
2017-Dec-10 13:59N 52°59' E 004°21'3 7.0
2017-Dec-10 13:30N 52°56' E 004°19'4 7.2
2017-Dec-10 13:00N 52°52' E 004°17'4 7.4
2017-Dec-10 12:30N 52°49' E 004°14'4 7.6
2017-Dec-10 12:00N 52°46' E 004°10'4 7.9
2017-Dec-10 11:30N 52°43' E 004°05'4 8.2
2017-Dec-10 11:00N 52°40' E 004°01'4 8.5
2017-Dec-10 10:30N 52°37' E 003°57'9 8.9
2017-Dec-10 09:29N 52°28' E 003°54'4 9.2
2017-Dec-10 09:00N 52°24' E 003°53'5 9.3
2017-Dec-10 08:30N 52°19' E 003°52'5 9.2
2017-Dec-10 08:00N 52°15' E 003°53'5 9.5
2017-Dec-10 07:30N 52°10' E 003°55'5 9.2
2017-Dec-10 07:00N 52°06' E 003°57'4 8.6
2017-Dec-10 06:30N 52°02' E 004°00'4 8.4
2017-Dec-10 06:00N 51°59' E 004°05'4 8.9
2017-Dec-10 05:30N 51°57' E 004°11'3 5.0
2017-Dec-10 04:59N 51°55' E 004°15'0 0.0
2017-Dec-10 04:29N 51°55' E 004°15'0 0.0
2017-Dec-10 03:59N 51°55' E 004°15'0 0.0
2017-Dec-10 03:29N 51°55' E 004°15'0 0.0
2017-Dec-10 02:59N 51°55' E 004°15'0 0.0
2017-Dec-10 02:29N 51°55' E 004°15'0 0.0
2017-Dec-10 01:53N 51°55' E 004°15'0 0.0
2017-Dec-10 01:29N 51°55' E 004°15'0 0.0
2017-Dec-10 00:59N 51°55' E 004°15'0 0.0
2017-Dec-10 00:29N 51°55' E 004°15'0 0.0
2017-Dec-09 23:59N 51°55' E 004°15'0 0.0
2017-Dec-09 23:29N 51°55' E 004°15'0 0.0
2017-Dec-09 22:59N 51°55' E 004°15'0 0.0
2017-Dec-09 22:29N 51°55' E 004°15'0 0.0
2017-Dec-09 21:59N 51°55' E 004°15'0 0.0
2017-Dec-09 21:26N 51°55' E 004°15'0 0.0
2017-Dec-09 20:59N 51°55' E 004°15'0 0.0
2017-Dec-09 20:29N 51°55' E 004°15'0 0.0
2017-Dec-09 19:59N 51°55' E 004°15'0 0.0
2017-Dec-09 19:29N 51°55' E 004°15'0 0.0
2017-Dec-09 18:59N 51°55' E 004°15'0 0.0
2017-Dec-09 18:29N 51°55' E 004°15'0 0.0
2017-Dec-09 17:59N 51°55' E 004°15'0 0.0
2017-Dec-09 17:29N 51°55' E 004°15'0 0.0
2017-Dec-09 16:59N 51°55' E 004°15'0 0.0
2017-Dec-09 16:29N 51°55' E 004°15'0 0.0
2017-Dec-09 15:59N 51°55' E 004°15'0 0.0
2017-Dec-09 15:26N 51°55' E 004°15'0 0.0
2017-Dec-09 14:59N 51°55' E 004°15'0 0.0
2017-Dec-09 14:26N 51°55' E 004°15'0 0.0
2017-Dec-09 13:59N 51°55' E 004°15'0 0.0
2017-Dec-09 13:29N 51°55' E 004°15'0 0.0
2017-Dec-09 12:59N 51°55' E 004°15'0 0.0
2017-Dec-09 12:29N 51°55' E 004°15'0 0.0
2017-Dec-09 11:53N 51°55' E 004°15'0 0.0
2017-Dec-09 11:29N 51°55' E 004°15'0 0.0
2017-Dec-09 10:59N 51°55' E 004°15'0 0.0
2017-Dec-09 10:29N 51°55' E 004°15'0 0.0
2017-Dec-09 09:59N 51°55' E 004°15'0 0.0
2017-Dec-09 09:29N 51°55' E 004°15'0 0.0
2017-Dec-09 08:59N 51°55' E 004°15'0 0.0
2017-Dec-09 08:23N 51°55' E 004°15'0 0.0
2017-Dec-09 07:59N 51°55' E 004°15'0 0.0
2017-Dec-09 07:29N 51°55' E 004°15'0 0.0
2017-Dec-09 06:59N 51°55' E 004°15'0 0.0
2017-Dec-09 06:29N 51°55' E 004°15'0 0.0
2017-Dec-09 05:59N 51°55' E 004°15'0 0.0
2017-Dec-09 05:26N 51°55' E 004°15'0 0.0
2017-Dec-09 04:59N 51°55' E 004°15'0 0.0
2017-Dec-09 04:26N 51°55' E 004°15'0 0.0
2017-Dec-09 03:59N 51°55' E 004°15'0 0.0
2017-Dec-09 03:29N 51°55' E 004°15'0 0.0
2017-Dec-09 02:59N 51°55' E 004°15'0 0.0
2017-Dec-09 02:29N 51°55' E 004°15'0 0.0
2017-Dec-09 01:59N 51°55' E 004°15'0 0.0
2017-Dec-09 01:29N 51°55' E 004°15'0 0.0
2017-Dec-09 00:59N 51°55' E 004°15'0 0.0
2017-Dec-09 00:29N 51°55' E 004°15'0 0.0
2017-Dec-08 23:59N 51°55' E 004°15'0 0.0
2017-Dec-08 23:26N 51°55' E 004°15'0 0.0
2017-Dec-08 22:59N 51°55' E 004°15'0 0.0
2017-Dec-08 22:29N 51°55' E 004°15'0 0.0
2017-Dec-08 21:56N 51°55' E 004°15'0 0.0
2017-Dec-08 21:29N 51°55' E 004°15'0 0.0
2017-Dec-08 20:59N 51°55' E 004°15'0 0.0
2017-Dec-08 20:26N 51°55' E 004°15'0 0.0
2017-Dec-08 19:59N 51°55' E 004°15'0 0.0
2017-Dec-08 19:29N 51°55' E 004°15'0 0.0
2017-Dec-08 18:59N 51°55' E 004°15'0 0.0
2017-Dec-08 18:29N 51°55' E 004°15'0 0.0
2017-Dec-08 17:59N 51°55' E 004°15'0 0.0
2017-Dec-08 17:29N 51°55' E 004°15'0 0.0
2017-Dec-08 16:59N 51°55' E 004°15'0 0.0
2017-Dec-08 16:29N 51°55' E 004°15'0 0.0
2017-Dec-08 15:59N 51°55' E 004°15'0 0.0
2017-Dec-08 15:29N 51°55' E 004°15'0 0.0
2017-Dec-08 14:59N 51°55' E 004°15'0 0.0
2017-Dec-08 14:29N 51°55' E 004°15'0 0.0
2017-Dec-08 13:59N 51°55' E 004°15'0 0.0
2017-Dec-08 13:29N 51°55' E 004°15'0 0.0
2017-Dec-08 12:59N 51°55' E 004°15'0 0.0
2017-Dec-08 12:29N 51°55' E 004°15'0 0.0
2017-Dec-08 11:59N 51°55' E 004°15'0 0.0
2017-Dec-08 11:29N 51°55' E 004°15'0 0.0
2017-Dec-08 10:56N 51°55' E 004°15'0 0.0
2017-Dec-08 10:29N 51°55' E 004°15'0 0.0
2017-Dec-08 09:56N 51°55' E 004°15'0 0.0
2017-Dec-08 09:29N 51°55' E 004°15'0 0.0
2017-Dec-08 08:59N 51°55' E 004°15'0 0.2
2017-Dec-08 08:30N 51°55' E 004°15'0 0.4
2017-Dec-08 08:00N 51°55' E 004°15'0 0.0
2017-Dec-08 07:30N 51°55' E 004°15'0 0.0
2017-Dec-08 06:57N 51°55' E 004°15'0 0.0
2017-Dec-08 06:30N 51°55' E 004°15'0 0.0
2017-Dec-08 05:57N 51°55' E 004°15'0 0.0
2017-Dec-08 05:24N 51°55' E 004°15'0 0.0
2017-Dec-08 05:00N 51°55' E 004°15'0 0.0
2017-Dec-08 04:30N 51°55' E 004°15'0 0.0
2017-Dec-08 04:00N 51°55' E 004°15'0 0.0
2017-Dec-08 03:30N 51°55' E 004°15'0 0.0
2017-Dec-08 03:00N 51°55' E 004°15'0 0.0
2017-Dec-08 02:30N 51°55' E 004°15'0 0.0
2017-Dec-08 02:00N 51°55' E 004°15'0 0.0
2017-Dec-08 01:30N 51°55' E 004°15'0 0.0
2017-Dec-08 01:00N 51°55' E 004°15'0 0.0
2017-Dec-08 00:30N 51°55' E 004°15'0 0.0
2017-Dec-08 00:00N 51°55' E 004°15'0 0.0
2017-Dec-07 23:30N 51°55' E 004°15'0 0.0
2017-Dec-07 23:00N 51°55' E 004°15'0 0.0
2017-Dec-07 22:30N 51°55' E 004°15'0 0.0
2017-Dec-07 22:00N 51°55' E 004°15'0 0.0
2017-Dec-07 21:24N 51°55' E 004°15'0 0.0
2017-Dec-07 21:00N 51°55' E 004°15'0 0.0
2017-Dec-07 20:27N 51°55' E 004°15'0 0.0
2017-Dec-07 20:00N 51°55' E 004°15'0 0.0
2017-Dec-07 19:27N 51°55' E 004°15'0 0.0
2017-Dec-07 19:00N 51°55' E 004°15'0 0.0
2017-Dec-07 18:30N 51°55' E 004°15'0 0.0
2017-Dec-07 17:57N 51°55' E 004°15'0 0.0
2017-Dec-07 17:30N 51°55' E 004°15'0 0.0
2017-Dec-07 17:00N 51°55' E 004°15'0 0.0
2017-Dec-07 16:27N 51°55' E 004°15'0 0.0
2017-Dec-07 15:57N 51°55' E 004°15'0 0.0
2017-Dec-07 15:27N 51°55' E 004°15'0 0.0
2017-Dec-07 14:57N 51°55' E 004°15'0 0.0
2017-Dec-07 14:30N 51°55' E 004°15'0 0.0
2017-Dec-07 14:00N 51°55' E 004°15'0 0.0
2017-Dec-07 13:30N 51°55' E 004°15'0 0.0
2017-Dec-07 12:57N 51°55' E 004°15'0 0.0
2017-Dec-07 12:30N 51°55' E 004°15'0 0.0
2017-Dec-07 11:58N 51°55' E 004°15'0 0.0
2017-Dec-07 11:28N 51°55' E 004°15'0 0.0
2017-Dec-07 10:58N 51°55' E 004°15'0 0.0
2017-Dec-07 10:28N 51°55' E 004°15'0 0.0
2017-Dec-07 09:58N 51°55' E 004°15'0 0.0
2017-Dec-07 09:28N 51°55' E 004°15'0 0.0
2017-Dec-07 08:58N 51°55' E 004°15'0 0.0
2017-Dec-07 08:28N 51°55' E 004°15'0 0.0
2017-Dec-07 07:58N 51°55' E 004°15'0 0.0
2017-Dec-07 07:28N 51°55' E 004°15'0 0.0
2017-Dec-07 06:55N 51°55' E 004°15'0 0.0
2017-Dec-07 06:28N 51°55' E 004°15'0 0.0
2017-Dec-07 05:58N 51°55' E 004°15'0 0.0
2017-Dec-07 05:28N 51°55' E 004°15'0 0.0
2017-Dec-07 04:58N 51°55' E 004°15'0 0.0
2017-Dec-07 04:28N 51°55' E 004°15'0 0.0
2017-Dec-07 03:58N 51°55' E 004°15'0 0.0
2017-Dec-07 03:28N 51°55' E 004°15'0 0.0
2017-Dec-07 02:58N 51°55' E 004°15'0 0.0
2017-Dec-07 02:28N 51°55' E 004°15'0 0.0
2017-Dec-07 01:58N 51°55' E 004°15'0 0.0
2017-Dec-07 01:22N 51°55' E 004°15'0 0.0
2017-Dec-07 00:58N 51°55' E 004°15'0 0.0
2017-Dec-07 00:28N 51°55' E 004°15'0 0.0
2017-Dec-06 23:58N 51°55' E 004°15'0 0.0
2017-Dec-06 23:28N 51°55' E 004°15'0 0.0
2017-Dec-06 22:52N 51°55' E 004°15'0 0.0
2017-Dec-06 22:28N 51°55' E 004°15'0 0.0
2017-Dec-06 21:58N 51°55' E 004°15'0 0.0
2017-Dec-06 21:28N 51°55' E 004°15'0 0.0
2017-Dec-06 20:58N 51°55' E 004°15'  
2017-Dec-04 10:22N 51°55' E 004°15'0 0.0
2017-Dec-04 09:58N 51°55' E 004°15'0 0.0
2017-Dec-04 09:31N 51°55' E 004°15'0 0.0
2017-Dec-04 08:57N 51°55' E 004°15'0 0.0
2017-Dec-04 08:31N 51°55' E 004°15'0 0.0
2017-Dec-04 07:57N 51°55' E 004°15'0 0.0
2017-Dec-04 07:30N 51°55' E 004°15'0 0.0
2017-Dec-04 06:51N 51°55' E 004°15'0 0.0
2017-Dec-04 06:28N 51°55' E 004°15'0 0.0
2017-Dec-04 06:00N 51°55' E 004°15'0 0.0
2017-Dec-04 05:28N 51°55' E 004°15'0 0.0
2017-Dec-04 04:58N 51°55' E 004°15'0 0.0
2017-Dec-04 04:30N 51°55' E 004°15'0 0.0
2017-Dec-04 03:54N 51°55' E 004°15'0 0.0
2017-Dec-04 03:31N 51°55' E 004°15'0 0.0
2017-Dec-04 03:01N 51°55' E 004°15'0 0.0
2017-Dec-04 02:28N 51°55' E 004°15'0 0.0
2017-Dec-04 01:52N 51°55' E 004°15'0 0.0
2017-Dec-04 01:28N 51°55' E 004°15'0 0.0
2017-Dec-04 01:01N 51°55' E 004°15'0 0.0
2017-Dec-04 00:27N 51°55' E 004°15'0 0.0
2017-Dec-03 23:58N 51°55' E 004°15'0 0.0
2017-Dec-03 23:30N 51°55' E 004°15'0 0.0
2017-Dec-03 23:01N 51°55' E 004°15'0 0.0
2017-Dec-03 22:31N 51°55' E 004°15'0 0.0
2017-Dec-03 22:00N 51°55' E 004°15'0 0.0
2017-Dec-03 21:27N 51°55' E 004°15'0 0.0
2017-Dec-03 21:01N 51°55' E 004°15'0 0.0
2017-Dec-03 20:30N 51°55' E 004°15'0 0.0
2017-Dec-03 20:00N 51°55' E 004°15'0 0.0
2017-Dec-03 19:30N 51°55' E 004°15'0 0.5
2017-Dec-03 19:00N 51°55' E 004°15'0 0.1
2017-Dec-03 18:30N 51°55' E 004°15'0 0.0
2017-Dec-03 18:00N 51°55' E 004°15'0 0.0
2017-Dec-03 17:30N 51°55' E 004°15'0 0.0
2017-Dec-03 17:00N 51°55' E 004°15'0 0.0
2017-Dec-03 16:30N 51°55' E 004°15'0 0.0
2017-Dec-03 16:00N 51°55' E 004°15'0 0.0
2017-Dec-03 15:30N 51°55' E 004°15'0 0.0
2017-Dec-03 15:00N 51°55' E 004°15'0 0.0
2017-Dec-03 14:30N 51°55' E 004°15'0 0.0
2017-Dec-03 14:00N 51°55' E 004°15'0 0.0
2017-Dec-03 13:30N 51°55' E 004°15'0 0.0
2017-Dec-03 13:00N 51°55' E 004°15'2 3.8
2017-Dec-03 12:30N 51°56' E 004°12'4 8.3
2017-Dec-03 12:00N 51°59' E 004°07'3 6.5
2017-Dec-03 11:30N 52°00' E 004°02'4 7.7
2017-Dec-03 11:00N 52°04' E 004°02'4 8.3
2017-Dec-03 10:30N 52°08' E 004°05'4 8.9
2017-Dec-03 10:00N 52°11' E 004°10'5 9.0
2017-Dec-03 09:30N 52°15' E 004°14'5 9.2
2017-Dec-03 09:00N 52°19' E 004°19'5 9.3
2017-Dec-03 08:30N 52°22' E 004°23'5 9.3
2017-Dec-03 08:00N 52°26' E 004°28'3 7.0
2017-Dec-03 07:31N 52°28' E 004°33'1 2.8
2017-Dec-03 07:00N 52°28' E 004°35'0 0.0
2017-Dec-03 06:30N 52°28' E 004°35'0 0.0
2017-Dec-03 06:00N 52°28' E 004°35'0 0.0
2017-Dec-03 05:30N 52°28' E 004°35'0 0.0
2017-Dec-03 05:00N 52°28' E 004°35'0 0.0
2017-Dec-03 04:30N 52°28' E 004°35'0 0.0
2017-Dec-03 04:01N 52°28' E 004°35'0 0.0
2017-Dec-03 03:30N 52°28' E 004°35'0 0.0
2017-Dec-03 03:01N 52°28' E 004°35'0 0.0
2017-Dec-03 02:30N 52°28' E 004°35'0 0.0
2017-Dec-03 02:00N 52°28' E 004°35'0 0.0
2017-Dec-03 01:30N 52°28' E 004°35'0 0.0
2017-Dec-03 01:00N 52°28' E 004°35'0 0.0
2017-Dec-03 00:30N 52°28' E 004°35'0 0.0
2017-Dec-03 00:00N 52°28' E 004°35'0 0.0
2017-Dec-02 23:30N 52°28' E 004°35'0 0.0
2017-Dec-02 23:00N 52°28' E 004°35'0 0.0
2017-Dec-02 22:30N 52°28' E 004°35'0 0.0
2017-Dec-02 22:00N 52°28' E 004°35'0 0.0
2017-Dec-02 21:30N 52°28' E 004°35'0 0.0
2017-Dec-02 21:01N 52°28' E 004°35'0 0.0
2017-Dec-02 20:31N 52°28' E 004°35'0 0.0
2017-Dec-02 20:00N 52°28' E 004°35'0 0.0
2017-Dec-02 19:30N 52°28' E 004°35'0 0.0
2017-Dec-02 19:00N 52°28' E 004°35'0 0.0
2017-Dec-02 18:30N 52°28' E 004°35'0 0.0
2017-Dec-02 18:00N 52°28' E 004°35'0 0.0
2017-Dec-02 17:30N 52°28' E 004°35'0 0.0
2017-Dec-02 16:30N 52°28' E 004°35'0 0.0
2017-Dec-02 16:00N 52°28' E 004°35'0 0.0
2017-Dec-02 15:30N 52°28' E 004°35'0 0.9
2017-Dec-02 15:00N 52°28' E 004°34'0 0.0
2017-Dec-02 14:30N 52°28' E 004°34'0 0.0
2017-Dec-02 14:00N 52°28' E 004°34'0 0.0
2017-Dec-02 13:30N 52°28' E 004°34'1 1.9
2017-Dec-02 13:01N 52°28' E 004°33'3 6.5
2017-Dec-02 12:30N 52°30' E 004°29'3 6.4
2017-Dec-02 12:00N 52°33' E 004°25'3 6.7
2017-Dec-02 11:30N 52°35' E 004°22'3 7.0
2017-Dec-02 11:00N 52°38' E 004°18'4 7.1
2017-Dec-02 10:30N 52°41' E 004°15'0 0.9
2017-Dec-02 10:00N 52°41' E 004°15'0 0.1
2017-Dec-02 09:30N 52°41' E 004°14'1 1.1
2017-Dec-02 09:00N 52°40' E 004°15'1 2.8
2017-Dec-02 08:30N 52°39' E 004°16'2 4.0
2017-Dec-02 08:00N 52°38' E 004°18'2 4.0
2017-Dec-02 07:30N 52°36' E 004°20'2 4.0
2017-Dec-02 07:00N 52°35' E 004°22'2 4.2
2017-Dec-02 06:30N 52°33' E 004°25'2 4.1
2017-Dec-02 06:00N 52°32' E 004°27'2 4.0
2017-Dec-02 05:30N 52°30' E 004°29'2 4.3
2017-Dec-02 05:00N 52°28' E 004°31'2 4.5
2017-Dec-02 04:30N 52°28' E 004°35'0 0.6
2017-Dec-02 04:00N 52°28' E 004°35'0 0.0
2017-Dec-02 03:30N 52°28' E 004°35'0 0.0
2017-Dec-02 03:00N 52°28' E 004°35'0 0.0
2017-Dec-02 02:30N 52°28' E 004°35'0 0.0
2017-Dec-02 02:00N 52°28' E 004°35'0 0.0
2017-Dec-02 01:30N 52°28' E 004°35'0 0.0
2017-Dec-02 01:00N 52°28' E 004°35'0 0.0
2017-Dec-02 00:30N 52°28' E 004°35'0 0.0
2017-Dec-02 00:00N 52°28' E 004°35'0 0.0
2017-Dec-01 23:30N 52°28' E 004°35'0 0.0
2017-Dec-01 23:00N 52°28' E 004°35'0 0.0
2017-Dec-01 22:30N 52°28' E 004°35'0 0.0
2017-Dec-01 22:00N 52°28' E 004°35'0 0.0
2017-Dec-01 21:30N 52°28' E 004°35'0 0.0
2017-Dec-01 21:00N 52°28' E 004°35'0 0.0
2017-Dec-01 20:30N 52°28' E 004°35'0 0.0
2017-Dec-01 20:00N 52°28' E 004°35'0 0.0
2017-Dec-01 19:30N 52°28' E 004°35'0 0.0
2017-Dec-01 19:00N 52°28' E 004°35'0 0.9
2017-Dec-01 18:31N 52°28' E 004°34'0 0.0
2017-Dec-01 18:00N 52°28' E 004°34'0 0.0
2017-Dec-01 17:31N 52°28' E 004°34'0 0.0
2017-Dec-01 17:01N 52°28' E 004°34'0 0.0
2017-Dec-01 16:30N 52°28' E 004°34'0 0.0
2017-Dec-01 16:01N 52°28' E 004°34'0 0.0
2017-Dec-01 15:00N 52°28' E 004°34'0 0.0
2017-Dec-01 14:30N 52°28' E 004°34'0 0.0
2017-Dec-01 14:00N 52°28' E 004°34'0 0.0
2017-Dec-01 13:31N 52°28' E 004°34'0 0.9
2017-Dec-01 13:00N 52°28' E 004°35'0 0.0
2017-Dec-01 12:30N 52°28' E 004°35'0 0.0
2017-Dec-01 12:00N 52°28' E 004°35'0 0.0
2017-Dec-01 11:30N 52°28' E 004°35'  
Track history (hours):
 
Tides and Currents Weather Stations Pressure Air Temp Water Temp Dewpoint Dewpoint Depression Visibility Wind Speed Wind Dir Waves Ship Positions

Martine P

Last reported at 2017-Dec-11 11:14 UTC. Time now 2017-Dec-11 13:23 UTC.
Position N 55°29' E 006°43'.

Length 27 m; draft 3 m.

Type: Tug. MMSI: 235091541.

Date/timePositionNaut miles runAvg speedWind from/ knotsBaromVisibWave heightAir tempDewpointWater temp
2017-Dec-11 11:14N 55°29' E 006°43'2 8.2
2017-Dec-11 11:00N 55°27' E 006°41'4 8.4
2017-Dec-11 10:30N 55°23' E 006°37'4 8.3
2017-Dec-11 09:59N 55°20' E 006°32'4 8.4
2017-Dec-11 09:30N 55°17' E 006°28'157 8.0
2017-Dec-10 13:59N 52°59' E 004°21'3 7.0
2017-Dec-10 13:30N 52°56' E 004°19'4 7.2
2017-Dec-10 13:00N 52°52' E 004°17'4 7.4
2017-Dec-10 12:30N 52°49' E 004°14'4 7.6
2017-Dec-10 12:00N 52°46' E 004°10'4 7.9
2017-Dec-10 11:30N 52°43' E 004°05'4 8.2
2017-Dec-10 11:00N 52°40' E 004°01'4 8.5
2017-Dec-10 10:30N 52°37' E 003°57'9 8.9
2017-Dec-10 09:29N 52°28' E 003°54'4 9.2
2017-Dec-10 09:00N 52°24' E 003°53'5 9.3
2017-Dec-10 08:30N 52°19' E 003°52'5 9.2
2017-Dec-10 08:00N 52°15' E 003°53'5 9.5
2017-Dec-10 07:30N 52°10' E 003°55'5 9.2
2017-Dec-10 07:00N 52°06' E 003°57'4 8.6
2017-Dec-10 06:30N 52°02' E 004°00'4 8.4
2017-Dec-10 06:00N 51°59' E 004°05'4 8.9
2017-Dec-10 05:30N 51°57' E 004°11'3 5.0
2017-Dec-10 04:59N 51°55' E 004°15'0 0.0
2017-Dec-10 04:29N 51°55' E 004°15'0 0.0
2017-Dec-10 03:59N 51°55' E 004°15'0 0.0
2017-Dec-10 03:29N 51°55' E 004°15'0 0.0
2017-Dec-10 02:59N 51°55' E 004°15'0 0.0
2017-Dec-10 02:29N 51°55' E 004°15'0 0.0
2017-Dec-10 01:53N 51°55' E 004°15'0 0.0
2017-Dec-10 01:29N 51°55' E 004°15'0 0.0
2017-Dec-10 00:59N 51°55' E 004°15'0 0.0
2017-Dec-10 00:29N 51°55' E 004°15'0 0.0
2017-Dec-09 23:59N 51°55' E 004°15'0 0.0
2017-Dec-09 23:29N 51°55' E 004°15'0 0.0
2017-Dec-09 22:59N 51°55' E 004°15'0 0.0
2017-Dec-09 22:29N 51°55' E 004°15'0 0.0
2017-Dec-09 21:59N 51°55' E 004°15'0 0.0
2017-Dec-09 21:26N 51°55' E 004°15'0 0.0
2017-Dec-09 20:59N 51°55' E 004°15'0 0.0
2017-Dec-09 20:29N 51°55' E 004°15'0 0.0
2017-Dec-09 19:59N 51°55' E 004°15'0 0.0
2017-Dec-09 19:29N 51°55' E 004°15'0 0.0
2017-Dec-09 18:59N 51°55' E 004°15'0 0.0
2017-Dec-09 18:29N 51°55' E 004°15'0 0.0
2017-Dec-09 17:59N 51°55' E 004°15'0 0.0
2017-Dec-09 17:29N 51°55' E 004°15'0 0.0
2017-Dec-09 16:59N 51°55' E 004°15'0 0.0
2017-Dec-09 16:29N 51°55' E 004°15'0 0.0
2017-Dec-09 15:59N 51°55' E 004°15'0 0.0
2017-Dec-09 15:26N 51°55' E 004°15'0 0.0
2017-Dec-09 14:59N 51°55' E 004°15'0 0.0
2017-Dec-09 14:26N 51°55' E 004°15'0 0.0
2017-Dec-09 13:59N 51°55' E 004°15'0 0.0
2017-Dec-09 13:29N 51°55' E 004°15'0 0.0
2017-Dec-09 12:59N 51°55' E 004°15'0 0.0
2017-Dec-09 12:29N 51°55' E 004°15'0 0.0
2017-Dec-09 11:53N 51°55' E 004°15'0 0.0
2017-Dec-09 11:29N 51°55' E 004°15'0 0.0
2017-Dec-09 10:59N 51°55' E 004°15'0 0.0
2017-Dec-09 10:29N 51°55' E 004°15'0 0.0
2017-Dec-09 09:59N 51°55' E 004°15'0 0.0
2017-Dec-09 09:29N 51°55' E 004°15'0 0.0
2017-Dec-09 08:59N 51°55' E 004°15'0 0.0
2017-Dec-09 08:23N 51°55' E 004°15'0 0.0
2017-Dec-09 07:59N 51°55' E 004°15'0 0.0
2017-Dec-09 07:29N 51°55' E 004°15'0 0.0
2017-Dec-09 06:59N 51°55' E 004°15'0 0.0
2017-Dec-09 06:29N 51°55' E 004°15'0 0.0
2017-Dec-09 05:59N 51°55' E 004°15'0 0.0
2017-Dec-09 05:26N 51°55' E 004°15'0 0.0
2017-Dec-09 04:59N 51°55' E 004°15'0 0.0
2017-Dec-09 04:26N 51°55' E 004°15'0 0.0
2017-Dec-09 03:59N 51°55' E 004°15'0 0.0
2017-Dec-09 03:29N 51°55' E 004°15'0 0.0
2017-Dec-09 02:59N 51°55' E 004°15'0 0.0
2017-Dec-09 02:29N 51°55' E 004°15'0 0.0
2017-Dec-09 01:59N 51°55' E 004°15'0 0.0
2017-Dec-09 01:29N 51°55' E 004°15'0 0.0
2017-Dec-09 00:59N 51°55' E 004°15'0 0.0
2017-Dec-09 00:29N 51°55' E 004°15'0 0.0
2017-Dec-08 23:59N 51°55' E 004°15'0 0.0
2017-Dec-08 23:26N 51°55' E 004°15'0 0.0
2017-Dec-08 22:59N 51°55' E 004°15'0 0.0
2017-Dec-08 22:29N 51°55' E 004°15'0 0.0
2017-Dec-08 21:56N 51°55' E 004°15'0 0.0
2017-Dec-08 21:29N 51°55' E 004°15'0 0.0
2017-Dec-08 20:59N 51°55' E 004°15'0 0.0
2017-Dec-08 20:26N 51°55' E 004°15'0 0.0
2017-Dec-08 19:59N 51°55' E 004°15'0 0.0
2017-Dec-08 19:29N 51°55' E 004°15'0 0.0
2017-Dec-08 18:59N 51°55' E 004°15'0 0.0
2017-Dec-08 18:29N 51°55' E 004°15'0 0.0
2017-Dec-08 17:59N 51°55' E 004°15'0 0.0
2017-Dec-08 17:29N 51°55' E 004°15'0 0.0
2017-Dec-08 16:59N 51°55' E 004°15'0 0.0
2017-Dec-08 16:29N 51°55' E 004°15'0 0.0
2017-Dec-08 15:59N 51°55' E 004°15'0 0.0
2017-Dec-08 15:29N 51°55' E 004°15'0 0.0
2017-Dec-08 14:59N 51°55' E 004°15'0 0.0
2017-Dec-08 14:29N 51°55' E 004°15'0 0.0
2017-Dec-08 13:59N 51°55' E 004°15'0 0.0
2017-Dec-08 13:29N 51°55' E 004°15'0 0.0
2017-Dec-08 12:59N 51°55' E 004°15'0 0.0
2017-Dec-08 12:29N 51°55' E 004°15'0 0.0
2017-Dec-08 11:59N 51°55' E 004°15'0 0.0
2017-Dec-08 11:29N 51°55' E 004°15'0 0.0
2017-Dec-08 10:56N 51°55' E 004°15'0 0.0
2017-Dec-08 10:29N 51°55' E 004°15'0 0.0
2017-Dec-08 09:56N 51°55' E 004°15'0 0.0
2017-Dec-08 09:29N 51°55' E 004°15'0 0.0
2017-Dec-08 08:59N 51°55' E 004°15'0 0.2
2017-Dec-08 08:30N 51°55' E 004°15'0 0.4
2017-Dec-08 08:00N 51°55' E 004°15'0 0.0
2017-Dec-08 07:30N 51°55' E 004°15'0 0.0
2017-Dec-08 06:57N 51°55' E 004°15'0 0.0
2017-Dec-08 06:30N 51°55' E 004°15'0 0.0
2017-Dec-08 05:57N 51°55' E 004°15'0 0.0
2017-Dec-08 05:24N 51°55' E 004°15'0 0.0
2017-Dec-08 05:00N 51°55' E 004°15'0 0.0
2017-Dec-08 04:30N 51°55' E 004°15'0 0.0
2017-Dec-08 04:00N 51°55' E 004°15'0 0.0
2017-Dec-08 03:30N 51°55' E 004°15'0 0.0
2017-Dec-08 03:00N 51°55' E 004°15'0 0.0
2017-Dec-08 02:30N 51°55' E 004°15'0 0.0
2017-Dec-08 02:00N 51°55' E 004°15'0 0.0
2017-Dec-08 01:30N 51°55' E 004°15'0 0.0
2017-Dec-08 01:00N 51°55' E 004°15'0 0.0
2017-Dec-08 00:30N 51°55' E 004°15'0 0.0
2017-Dec-08 00:00N 51°55' E 004°15'0 0.0
2017-Dec-07 23:30N 51°55' E 004°15'0 0.0
2017-Dec-07 23:00N 51°55' E 004°15'0 0.0
2017-Dec-07 22:30N 51°55' E 004°15'0 0.0
2017-Dec-07 22:00N 51°55' E 004°15'0 0.0
2017-Dec-07 21:24N 51°55' E 004°15'0 0.0
2017-Dec-07 21:00N 51°55' E 004°15'0 0.0
2017-Dec-07 20:27N 51°55' E 004°15'0 0.0
2017-Dec-07 20:00N 51°55' E 004°15'0 0.0
2017-Dec-07 19:27N 51°55' E 004°15'0 0.0
2017-Dec-07 19:00N 51°55' E 004°15'0 0.0
2017-Dec-07 18:30N 51°55' E 004°15'0 0.0
2017-Dec-07 17:57N 51°55' E 004°15'0 0.0
2017-Dec-07 17:30N 51°55' E 004°15'0 0.0
2017-Dec-07 17:00N 51°55' E 004°15'0 0.0
2017-Dec-07 16:27N 51°55' E 004°15'0 0.0
2017-Dec-07 15:57N 51°55' E 004°15'0 0.0
2017-Dec-07 15:27N 51°55' E 004°15'0 0.0
2017-Dec-07 14:57N 51°55' E 004°15'0 0.0
2017-Dec-07 14:30N 51°55' E 004°15'0 0.0
2017-Dec-07 14:00N 51°55' E 004°15'0 0.0
2017-Dec-07 13:30N 51°55' E 004°15'0 0.0
2017-Dec-07 12:57N 51°55' E 004°15'0 0.0
2017-Dec-07 12:30N 51°55' E 004°15'0 0.0
2017-Dec-07 11:58N 51°55' E 004°15'0 0.0
2017-Dec-07 11:28N 51°55' E 004°15'0 0.0
2017-Dec-07 10:58N 51°55' E 004°15'0 0.0
2017-Dec-07 10:28N 51°55' E 004°15'0 0.0
2017-Dec-07 09:58N 51°55' E 004°15'0 0.0
2017-Dec-07 09:28N 51°55' E 004°15'0 0.0
2017-Dec-07 08:58N 51°55' E 004°15'0 0.0
2017-Dec-07 08:28N 51°55' E 004°15'0 0.0
2017-Dec-07 07:58N 51°55' E 004°15'0 0.0
2017-Dec-07 07:28N 51°55' E 004°15'0 0.0
2017-Dec-07 06:55N 51°55' E 004°15'0 0.0
2017-Dec-07 06:28N 51°55' E 004°15'0 0.0
2017-Dec-07 05:58N 51°55' E 004°15'0 0.0
2017-Dec-07 05:28N 51°55' E 004°15'0 0.0
2017-Dec-07 04:58N 51°55' E 004°15'0 0.0
2017-Dec-07 04:28N 51°55' E 004°15'0 0.0
2017-Dec-07 03:58N 51°55' E 004°15'0 0.0
2017-Dec-07 03:28N 51°55' E 004°15'0 0.0
2017-Dec-07 02:58N 51°55' E 004°15'0 0.0
2017-Dec-07 02:28N 51°55' E 004°15'0 0.0
2017-Dec-07 01:58N 51°55' E 004°15'0 0.0
2017-Dec-07 01:22N 51°55' E 004°15'0 0.0
2017-Dec-07 00:58N 51°55' E 004°15'0 0.0
2017-Dec-07 00:28N 51°55' E 004°15'0 0.0
2017-Dec-06 23:58N 51°55' E 004°15'0 0.0
2017-Dec-06 23:28N 51°55' E 004°15'0 0.0
2017-Dec-06 22:52N 51°55' E 004°15'0 0.0
2017-Dec-06 22:28N 51°55' E 004°15'0 0.0
2017-Dec-06 21:58N 51°55' E 004°15'0 0.0
2017-Dec-06 21:28N 51°55' E 004°15'0 0.0
2017-Dec-06 20:58N 51°55' E 004°15'  
2017-Dec-04 10:22N 51°55' E 004°15'0 0.0
2017-Dec-04 09:58N 51°55' E 004°15'0 0.0
2017-Dec-04 09:31N 51°55' E 004°15'0 0.0
2017-Dec-04 08:57N 51°55' E 004°15'0 0.0
2017-Dec-04 08:31N 51°55' E 004°15'0 0.0
2017-Dec-04 07:57N 51°55' E 004°15'0 0.0
2017-Dec-04 07:30N 51°55' E 004°15'0 0.0
2017-Dec-04 06:51N 51°55' E 004°15'0 0.0
2017-Dec-04 06:28N 51°55' E 004°15'0 0.0
2017-Dec-04 06:00N 51°55' E 004°15'0 0.0
2017-Dec-04 05:28N 51°55' E 004°15'0 0.0
2017-Dec-04 04:58N 51°55' E 004°15'0 0.0
2017-Dec-04 04:30N 51°55' E 004°15'0 0.0
2017-Dec-04 03:54N 51°55' E 004°15'0 0.0
2017-Dec-04 03:31N 51°55' E 004°15'0 0.0
2017-Dec-04 03:01N 51°55' E 004°15'0 0.0
2017-Dec-04 02:28N 51°55' E 004°15'0 0.0
2017-Dec-04 01:52N 51°55' E 004°15'0 0.0
2017-Dec-04 01:28N 51°55' E 004°15'0 0.0
2017-Dec-04 01:01N 51°55' E 004°15'0 0.0
2017-Dec-04 00:27N 51°55' E 004°15'0 0.0
2017-Dec-03 23:58N 51°55' E 004°15'0 0.0
2017-Dec-03 23:30N 51°55' E 004°15'0 0.0
2017-Dec-03 23:01N 51°55' E 004°15'0 0.0
2017-Dec-03 22:31N 51°55' E 004°15'0 0.0
2017-Dec-03 22:00N 51°55' E 004°15'0 0.0
2017-Dec-03 21:27N 51°55' E 004°15'0 0.0
2017-Dec-03 21:01N 51°55' E 004°15'0 0.0
2017-Dec-03 20:30N 51°55' E 004°15'0 0.0
2017-Dec-03 20:00N 51°55' E 004°15'0 0.0
2017-Dec-03 19:30N 51°55' E 004°15'0 0.5
2017-Dec-03 19:00N 51°55' E 004°15'0 0.1
2017-Dec-03 18:30N 51°55' E 004°15'0 0.0
2017-Dec-03 18:00N 51°55' E 004°15'0 0.0
2017-Dec-03 17:30N 51°55' E 004°15'0 0.0
2017-Dec-03 17:00N 51°55' E 004°15'0 0.0
2017-Dec-03 16:30N 51°55' E 004°15'0 0.0
2017-Dec-03 16:00N 51°55' E 004°15'0 0.0
2017-Dec-03 15:30N 51°55' E 004°15'0 0.0
2017-Dec-03 15:00N 51°55' E 004°15'0 0.0
2017-Dec-03 14:30N 51°55' E 004°15'0 0.0
2017-Dec-03 14:00N 51°55' E 004°15'0 0.0
2017-Dec-03 13:30N 51°55' E 004°15'0 0.0
2017-Dec-03 13:00N 51°55' E 004°15'2 3.8
2017-Dec-03 12:30N 51°56' E 004°12'4 8.3
2017-Dec-03 12:00N 51°59' E 004°07'3 6.5
2017-Dec-03 11:30N 52°00' E 004°02'4 7.7
2017-Dec-03 11:00N 52°04' E 004°02'4 8.3
2017-Dec-03 10:30N 52°08' E 004°05'4 8.9
2017-Dec-03 10:00N 52°11' E 004°10'5 9.0
2017-Dec-03 09:30N 52°15' E 004°14'5 9.2
2017-Dec-03 09:00N 52°19' E 004°19'5 9.3
2017-Dec-03 08:30N 52°22' E 004°23'5 9.3
2017-Dec-03 08:00N 52°26' E 004°28'3 7.0
2017-Dec-03 07:31N 52°28' E 004°33'1 2.8
2017-Dec-03 07:00N 52°28' E 004°35'0 0.0
2017-Dec-03 06:30N 52°28' E 004°35'0 0.0
2017-Dec-03 06:00N 52°28' E 004°35'0 0.0
2017-Dec-03 05:30N 52°28' E 004°35'0 0.0
2017-Dec-03 05:00N 52°28' E 004°35'0 0.0
2017-Dec-03 04:30N 52°28' E 004°35'0 0.0
2017-Dec-03 04:01N 52°28' E 004°35'0 0.0
2017-Dec-03 03:30N 52°28' E 004°35'0 0.0
2017-Dec-03 03:01N 52°28' E 004°35'0 0.0
2017-Dec-03 02:30N 52°28' E 004°35'0 0.0
2017-Dec-03 02:00N 52°28' E 004°35'0 0.0
2017-Dec-03 01:30N 52°28' E 004°35'0 0.0
2017-Dec-03 01:00N 52°28' E 004°35'0 0.0
2017-Dec-03 00:30N 52°28' E 004°35'0 0.0
2017-Dec-03 00:00N 52°28' E 004°35'0 0.0
2017-Dec-02 23:30N 52°28' E 004°35'0 0.0
2017-Dec-02 23:00N 52°28' E 004°35'0 0.0
2017-Dec-02 22:30N 52°28' E 004°35'0 0.0
2017-Dec-02 22:00N 52°28' E 004°35'0 0.0
2017-Dec-02 21:30N 52°28' E 004°35'0 0.0
2017-Dec-02 21:01N 52°28' E 004°35'0 0.0
2017-Dec-02 20:31N 52°28' E 004°35'0 0.0
2017-Dec-02 20:00N 52°28' E 004°35'0 0.0
2017-Dec-02 19:30N 52°28' E 004°35'0 0.0
2017-Dec-02 19:00N 52°28' E 004°35'0 0.0
2017-Dec-02 18:30N 52°28' E 004°35'0 0.0
2017-Dec-02 18:00N 52°28' E 004°35'0 0.0
2017-Dec-02 17:30N 52°28' E 004°35'0 0.0
2017-Dec-02 16:30N 52°28' E 004°35'0 0.0
2017-Dec-02 16:00N 52°28' E 004°35'0 0.0
2017-Dec-02 15:30N 52°28' E 004°35'0 0.9
2017-Dec-02 15:00N 52°28' E 004°34'0 0.0
2017-Dec-02 14:30N 52°28' E 004°34'0 0.0
2017-Dec-02 14:00N 52°28' E 004°34'0 0.0
2017-Dec-02 13:30N 52°28' E 004°34'1 1.9
2017-Dec-02 13:01N 52°28' E 004°33'3 6.5
2017-Dec-02 12:30N 52°30' E 004°29'3 6.4
2017-Dec-02 12:00N 52°33' E 004°25'3 6.7
2017-Dec-02 11:30N 52°35' E 004°22'3 7.0
2017-Dec-02 11:00N 52°38' E 004°18'4 7.1
2017-Dec-02 10:30N 52°41' E 004°15'0 0.9
2017-Dec-02 10:00N 52°41' E 004°15'0 0.1
2017-Dec-02 09:30N 52°41' E 004°14'1 1.1
2017-Dec-02 09:00N 52°40' E 004°15'1 2.8
2017-Dec-02 08:30N 52°39' E 004°16'2 4.0
2017-Dec-02 08:00N 52°38' E 004°18'2 4.0
2017-Dec-02 07:30N 52°36' E 004°20'2 4.0
2017-Dec-02 07:00N 52°35' E 004°22'2 4.2
2017-Dec-02 06:30N 52°33' E 004°25'2 4.1
2017-Dec-02 06:00N 52°32' E 004°27'2 4.0
2017-Dec-02 05:30N 52°30' E 004°29'2 4.3
2017-Dec-02 05:00N 52°28' E 004°31'2 4.5
2017-Dec-02 04:30N 52°28' E 004°35'0 0.6
2017-Dec-02 04:00N 52°28' E 004°35'0 0.0
2017-Dec-02 03:30N 52°28' E 004°35'0 0.0
2017-Dec-02 03:00N 52°28' E 004°35'0 0.0
2017-Dec-02 02:30N 52°28' E 004°35'0 0.0
2017-Dec-02 02:00N 52°28' E 004°35'0 0.0
2017-Dec-02 01:30N 52°28' E 004°35'0 0.0
2017-Dec-02 01:00N 52°28' E 004°35'0 0.0
2017-Dec-02 00:30N 52°28' E 004°35'0 0.0
2017-Dec-02 00:00N 52°28' E 004°35'0 0.0
2017-Dec-01 23:30N 52°28' E 004°35'0 0.0
2017-Dec-01 23:00N 52°28' E 004°35'0 0.0
2017-Dec-01 22:30N 52°28' E 004°35'0 0.0
2017-Dec-01 22:00N 52°28' E 004°35'0 0.0
2017-Dec-01 21:30N 52°28' E 004°35'0 0.0
2017-Dec-01 21:00N 52°28' E 004°35'0 0.0
2017-Dec-01 20:30N 52°28' E 004°35'0 0.0
2017-Dec-01 20:00N 52°28' E 004°35'0 0.0
2017-Dec-01 19:30N 52°28' E 004°35'0 0.0
2017-Dec-01 19:00N 52°28' E 004°35'0 0.9
2017-Dec-01 18:31N 52°28' E 004°34'0 0.0
2017-Dec-01 18:00N 52°28' E 004°34'0 0.0
2017-Dec-01 17:31N 52°28' E 004°34'0 0.0
2017-Dec-01 17:01N 52°28' E 004°34'0 0.0
2017-Dec-01 16:30N 52°28' E 004°34'0 0.0
2017-Dec-01 16:01N 52°28' E 004°34'0 0.0
2017-Dec-01 15:00N 52°28' E 004°34'0 0.0
2017-Dec-01 14:30N 52°28' E 004°34'0 0.0
2017-Dec-01 14:00N 52°28' E 004°34'0 0.0
2017-Dec-01 13:31N 52°28' E 004°34'0 0.9
2017-Dec-01 13:00N 52°28' E 004°35'0 0.0
2017-Dec-01 12:30N 52°28' E 004°35'0 0.0
2017-Dec-01 12:00N 52°28' E 004°35'0 0.0
2017-Dec-01 11:30N 52°28' E 004°35'  

Dump ship's entire track history